sensor_id;sensor_type;location;lat;lon;timestamp;temperature;humidity
38333;DHT22;25748;46.670;14.272;2024-01-16T00:00:17;-4.20;59.80
38333;DHT22;25748;46.670;14.272;2024-01-16T00:02:42;-4.20;60.10
38333;DHT22;25748;46.670;14.272;2024-01-16T00:05:08;-4.20;60.10
38333;DHT22;25748;46.670;14.272;2024-01-16T00:07:38;-4.30;59.90
38333;DHT22;25748;46.670;14.272;2024-01-16T00:10:06;-4.30;60.10
38333;DHT22;25748;46.670;14.272;2024-01-16T00:12:32;-4.30;60.50
38333;DHT22;25748;46.670;14.272;2024-01-16T00:14:58;-4.30;60.70
38333;DHT22;25748;46.670;14.272;2024-01-16T00:17:23;-4.30;61.00
38333;DHT22;25748;46.670;14.272;2024-01-16T00:19:49;-4.30;61.20
38333;DHT22;25748;46.670;14.272;2024-01-16T00:22:15;-4.30;61.20
38333;DHT22;25748;46.670;14.272;2024-01-16T00:24:40;-4.30;61.20
38333;DHT22;25748;46.670;14.272;2024-01-16T00:27:06;-4.30;61.10
38333;DHT22;25748;46.670;14.272;2024-01-16T00:29:32;-4.30;61.00
38333;DHT22;25748;46.670;14.272;2024-01-16T00:31:57;-4.40;61.00
38333;DHT22;25748;46.670;14.272;2024-01-16T00:34:23;-4.40;61.00
38333;DHT22;25748;46.670;14.272;2024-01-16T00:36:49;-4.40;60.80
38333;DHT22;25748;46.670;14.272;2024-01-16T00:39:14;-4.40;60.80
38333;DHT22;25748;46.670;14.272;2024-01-16T00:41:40;-4.40;61.20
38333;DHT22;25748;46.670;14.272;2024-01-16T00:44:05;-4.40;61.30
38333;DHT22;25748;46.670;14.272;2024-01-16T00:46:33;-4.40;61.40
38333;DHT22;25748;46.670;14.272;2024-01-16T00:48:58;-4.30;61.60
38333;DHT22;25748;46.670;14.272;2024-01-16T00:51:24;-4.40;61.40
38333;DHT22;25748;46.670;14.272;2024-01-16T00:53:50;-4.40;61.20
38333;DHT22;25748;46.670;14.272;2024-01-16T00:56:15;-4.40;61.30
38333;DHT22;25748;46.670;14.272;2024-01-16T00:58:41;-4.50;61.10
38333;DHT22;25748;46.670;14.272;2024-01-16T01:01:06;-4.50;61.40
38333;DHT22;25748;46.670;14.272;2024-01-16T01:03:32;-4.50;61.40
38333;DHT22;25748;46.670;14.272;2024-01-16T01:06:00;-4.50;61.20
38333;DHT22;25748;46.670;14.272;2024-01-16T01:08:25;-4.50;61.30
38333;DHT22;25748;46.670;14.272;2024-01-16T01:10:51;-4.50;61.50
38333;DHT22;25748;46.670;14.272;2024-01-16T01:13:17;-4.50;61.60
38333;DHT22;25748;46.670;14.272;2024-01-16T01:15:42;-4.60;61.60
38333;DHT22;25748;46.670;14.272;2024-01-16T01:18:08;-4.50;61.80
38333;DHT22;25748;46.670;14.272;2024-01-16T01:20:34;-4.50;62.00
38333;DHT22;25748;46.670;14.272;2024-01-16T01:22:59;-4.50;62.10
38333;DHT22;25748;46.670;14.272;2024-01-16T01:25:25;-4.60;61.80
38333;DHT22;25748;46.670;14.272;2024-01-16T01:27:52;-4.50;61.90
38333;DHT22;25748;46.670;14.272;2024-01-16T01:30:17;-4.50;62.20
38333;DHT22;25748;46.670;14.272;2024-01-16T01:32:43;-4.50;62.10
38333;DHT22;25748;46.670;14.272;2024-01-16T01:35:09;-4.50;62.20
38333;DHT22;25748;46.670;14.272;2024-01-16T01:37:37;-4.50;62.20
38333;DHT22;25748;46.670;14.272;2024-01-16T01:40:03;-4.50;62.10
38333;DHT22;25748;46.670;14.272;2024-01-16T01:42:29;-4.50;62.10
38333;DHT22;25748;46.670;14.272;2024-01-16T01:44:55;-4.50;62.00
38333;DHT22;25748;46.670;14.272;2024-01-16T01:47:20;-4.60;61.30
38333;DHT22;25748;46.670;14.272;2024-01-16T01:49:46;-4.70;60.90
38333;DHT22;25748;46.670;14.272;2024-01-16T01:52:13;-4.80;60.70
38333;DHT22;25748;46.670;14.272;2024-01-16T01:54:40;-4.80;61.20
38333;DHT22;25748;46.670;14.272;2024-01-16T01:57:07;-4.80;61.30
38333;DHT22;25748;46.670;14.272;2024-01-16T01:59:33;-4.90;61.20
38333;DHT22;25748;46.670;14.272;2024-01-16T02:02:00;-4.90;61.50
38333;DHT22;25748;46.670;14.272;2024-01-16T02:04:26;-4.90;61.30
38333;DHT22;25748;46.670;14.272;2024-01-16T02:06:53;-4.90;61.40
38333;DHT22;25748;46.670;14.272;2024-01-16T02:09:19;-5.00;61.30
38333;DHT22;25748;46.670;14.272;2024-01-16T02:11:45;-5.00;61.30
38333;DHT22;25748;46.670;14.272;2024-01-16T02:14:11;-5.00;61.20
38333;DHT22;25748;46.670;14.272;2024-01-16T02:16:38;-5.00;61.50
38333;DHT22;25748;46.670;14.272;2024-01-16T02:19:05;-5.10;61.40
38333;DHT22;25748;46.670;14.272;2024-01-16T02:21:46;-5.10;61.50
38333;DHT22;25748;46.670;14.272;2024-01-16T02:24:16;-5.10;61.30
38333;DHT22;25748;46.670;14.272;2024-01-16T02:26:42;-5.10;61.30
38333;DHT22;25748;46.670;14.272;2024-01-16T02:29:08;-5.10;61.50
38333;DHT22;25748;46.670;14.272;2024-01-16T02:31:34;-5.20;61.50
38333;DHT22;25748;46.670;14.272;2024-01-16T02:34:01;-5.20;61.60
38333;DHT22;25748;46.670;14.272;2024-01-16T02:36:27;-5.20;61.70
38333;DHT22;25748;46.670;14.272;2024-01-16T02:38:54;-5.20;61.90
38333;DHT22;25748;46.670;14.272;2024-01-16T02:41:20;-5.20;61.80
38333;DHT22;25748;46.670;14.272;2024-01-16T02:43:46;-5.20;61.90
38333;DHT22;25748;46.670;14.272;2024-01-16T02:46:12;-5.20;61.80
38333;DHT22;25748;46.670;14.272;2024-01-16T02:48:38;-5.20;61.90
38333;DHT22;25748;46.670;14.272;2024-01-16T02:51:04;-5.30;61.20
38333;DHT22;25748;46.670;14.272;2024-01-16T02:53:31;-5.30;61.10
38333;DHT22;25748;46.670;14.272;2024-01-16T02:55:57;-5.30;61.40
38333;DHT22;25748;46.670;14.272;2024-01-16T02:58:28;-5.40;61.00
38333;DHT22;25748;46.670;14.272;2024-01-16T03:00:54;-5.40;60.80
38333;DHT22;25748;46.670;14.272;2024-01-16T03:03:19;-5.50;60.70
38333;DHT22;25748;46.670;14.272;2024-01-16T03:05:49;-5.50;61.00
38333;DHT22;25748;46.670;14.272;2024-01-16T03:08:14;-5.50;60.90
38333;DHT22;25748;46.670;14.272;2024-01-16T03:10:40;-5.60;60.90
38333;DHT22;25748;46.670;14.272;2024-01-16T03:13:06;-5.60;60.90
38333;DHT22;25748;46.670;14.272;2024-01-16T03:15:32;-5.70;60.60
38333;DHT22;25748;46.670;14.272;2024-01-16T03:17:59;-5.70;60.70
38333;DHT22;25748;46.670;14.272;2024-01-16T03:20:25;-5.70;60.80
38333;DHT22;25748;46.670;14.272;2024-01-16T03:22:51;-5.70;60.70
38333;DHT22;25748;46.670;14.272;2024-01-16T03:25:17;-5.80;60.50
38333;DHT22;25748;46.670;14.272;2024-01-16T03:27:43;-5.80;60.60
38333;DHT22;25748;46.670;14.272;2024-01-16T03:30:10;-5.90;60.30
38333;DHT22;25748;46.670;14.272;2024-01-16T03:32:36;-6.00;60.20
38333;DHT22;25748;46.670;14.272;2024-01-16T03:35:03;-5.90;60.70
38333;DHT22;25748;46.670;14.272;2024-01-16T03:37:30;-6.00;60.70
38333;DHT22;25748;46.670;14.272;2024-01-16T03:39:55;-5.90;60.90
38333;DHT22;25748;46.670;14.272;2024-01-16T03:42:22;-5.90;61.00
38333;DHT22;25748;46.670;14.272;2024-01-16T03:44:48;-6.00;60.70
38333;DHT22;25748;46.670;14.272;2024-01-16T03:47:15;-6.00;60.80
38333;DHT22;25748;46.670;14.272;2024-01-16T03:49:40;-6.00;61.00
38333;DHT22;25748;46.670;14.272;2024-01-16T03:52:06;-6.00;61.20
38333;DHT22;25748;46.670;14.272;2024-01-16T03:54:32;-6.00;61.30
38333;DHT22;25748;46.670;14.272;2024-01-16T03:56:57;-6.00;61.20
38333;DHT22;25748;46.670;14.272;2024-01-16T03:59:23;-6.10;60.70
38333;DHT22;25748;46.670;14.272;2024-01-16T04:01:49;-6.10;60.90
38333;DHT22;25748;46.670;14.272;2024-01-16T04:04:15;-6.10;61.00
38333;DHT22;25748;46.670;14.272;2024-01-16T04:06:42;-6.10;60.70
38333;DHT22;25748;46.670;14.272;2024-01-16T04:09:08;-6.20;60.80
38333;DHT22;25748;46.670;14.272;2024-01-16T04:11:35;-6.20;60.80
38333;DHT22;25748;46.670;14.272;2024-01-16T04:14:01;-6.20;60.70
38333;DHT22;25748;46.670;14.272;2024-01-16T04:16:27;-6.20;61.20
38333;DHT22;25748;46.670;14.272;2024-01-16T04:18:52;-6.20;61.40
38333;DHT22;25748;46.670;14.272;2024-01-16T04:21:18;-6.10;61.70
38333;DHT22;25748;46.670;14.272;2024-01-16T04:23:44;-6.10;61.80
38333;DHT22;25748;46.670;14.272;2024-01-16T04:26:10;-6.10;61.80
38333;DHT22;25748;46.670;14.272;2024-01-16T04:28:35;-6.10;61.80
38333;DHT22;25748;46.670;14.272;2024-01-16T04:31:04;-6.10;61.70
38333;DHT22;25748;46.670;14.272;2024-01-16T04:33:30;-6.10;61.70
38333;DHT22;25748;46.670;14.272;2024-01-16T04:35:56;-6.10;61.50
38333;DHT22;25748;46.670;14.272;2024-01-16T04:38:22;-6.20;61.40
38333;DHT22;25748;46.670;14.272;2024-01-16T04:40:47;-6.20;61.50
38333;DHT22;25748;46.670;14.272;2024-01-16T04:43:13;-6.20;61.30
38333;DHT22;25748;46.670;14.272;2024-01-16T04:45:39;-6.20;61.30
38333;DHT22;25748;46.670;14.272;2024-01-16T04:48:05;-6.30;60.80
38333;DHT22;25748;46.670;14.272;2024-01-16T04:50:30;-6.30;61.00
38333;DHT22;25748;46.670;14.272;2024-01-16T04:52:59;-6.40;60.60
38333;DHT22;25748;46.670;14.272;2024-01-16T04:55:28;-6.40;60.70
38333;DHT22;25748;46.670;14.272;2024-01-16T04:57:56;-6.40;61.00
38333;DHT22;25748;46.670;14.272;2024-01-16T05:00:22;-6.50;60.60
38333;DHT22;25748;46.670;14.272;2024-01-16T05:02:48;-6.50;60.70
38333;DHT22;25748;46.670;14.272;2024-01-16T05:05:14;-6.50;60.90
38333;DHT22;25748;46.670;14.272;2024-01-16T05:07:40;-6.50;61.10
38333;DHT22;25748;46.670;14.272;2024-01-16T05:10:09;-6.50;61.10
38333;DHT22;25748;46.670;14.272;2024-01-16T05:12:35;-6.50;61.20
38333;DHT22;25748;46.670;14.272;2024-01-16T05:15:00;-6.50;61.40
38333;DHT22;25748;46.670;14.272;2024-01-16T05:17:26;-6.50;61.50
38333;DHT22;25748;46.670;14.272;2024-01-16T05:19:51;-6.50;61.40
38333;DHT22;25748;46.670;14.272;2024-01-16T05:22:17;-6.50;61.20
38333;DHT22;25748;46.670;14.272;2024-01-16T05:24:43;-6.50;61.40
38333;DHT22;25748;46.670;14.272;2024-01-16T05:27:08;-6.50;61.50
38333;DHT22;25748;46.670;14.272;2024-01-16T05:29:34;-6.50;61.60
38333;DHT22;25748;46.670;14.272;2024-01-16T05:32:03;-6.50;61.60
38333;DHT22;25748;46.670;14.272;2024-01-16T05:34:29;-6.50;61.60
38333;DHT22;25748;46.670;14.272;2024-01-16T05:36:55;-6.50;61.70
38333;DHT22;25748;46.670;14.272;2024-01-16T05:39:20;-6.50;61.80
38333;DHT22;25748;46.670;14.272;2024-01-16T05:41:46;-6.50;61.80
38333;DHT22;25748;46.670;14.272;2024-01-16T05:44:12;-6.50;61.90
38333;DHT22;25748;46.670;14.272;2024-01-16T05:46:37;-6.40;61.90
38333;DHT22;25748;46.670;14.272;2024-01-16T05:49:03;-6.40;61.90
38333;DHT22;25748;46.670;14.272;2024-01-16T05:51:29;-6.40;61.70
38333;DHT22;25748;46.670;14.272;2024-01-16T05:53:55;-6.30;61.70
38333;DHT22;25748;46.670;14.272;2024-01-16T05:56:20;-6.30;61.70
38333;DHT22;25748;46.670;14.272;2024-01-16T05:58:46;-6.30;61.70
38333;DHT22;25748;46.670;14.272;2024-01-16T06:01:12;-6.30;61.80
38333;DHT22;25748;46.670;14.272;2024-01-16T06:03:41;-6.30;61.80
38333;DHT22;25748;46.670;14.272;2024-01-16T06:06:07;-6.40;61.50
38333;DHT22;25748;46.670;14.272;2024-01-16T06:08:33;-6.40;61.20
38333;DHT22;25748;46.670;14.272;2024-01-16T06:10:59;-6.40;61.00
38333;DHT22;25748;46.670;14.272;2024-01-16T06:13:24;-6.50;61.10
38333;DHT22;25748;46.670;14.272;2024-01-16T06:15:50;-6.50;60.90
38333;DHT22;25748;46.670;14.272;2024-01-16T06:18:16;-6.60;60.10
38333;DHT22;25748;46.670;14.272;2024-01-16T06:20:41;-6.70;60.30
38333;DHT22;25748;46.670;14.272;2024-01-16T06:23:07;-6.70;60.60
38333;DHT22;25748;46.670;14.272;2024-01-16T06:25:33;-6.70;60.60
38333;DHT22;25748;46.670;14.272;2024-01-16T06:27:58;-6.70;60.80
38333;DHT22;25748;46.670;14.272;2024-01-16T06:30:24;-6.70;60.90
38333;DHT22;25748;46.670;14.272;2024-01-16T06:32:49;-6.70;61.00
38333;DHT22;25748;46.670;14.272;2024-01-16T06:35:18;-6.80;61.10
38333;DHT22;25748;46.670;14.272;2024-01-16T06:37:44;-6.80;61.10
38333;DHT22;25748;46.670;14.272;2024-01-16T06:40:10;-6.70;61.10
38333;DHT22;25748;46.670;14.272;2024-01-16T06:42:36;-6.80;61.10
38333;DHT22;25748;46.670;14.272;2024-01-16T06:45:02;-6.70;61.20
38333;DHT22;25748;46.670;14.272;2024-01-16T06:47:28;-6.70;61.40
38333;DHT22;25748;46.670;14.272;2024-01-16T06:49:53;-6.70;61.50
38333;DHT22;25748;46.670;14.272;2024-01-16T06:52:19;-6.70;61.40
38333;DHT22;25748;46.670;14.272;2024-01-16T06:54:45;-6.70;61.40
38333;DHT22;25748;46.670;14.272;2024-01-16T06:57:11;-6.70;61.40
38333;DHT22;25748;46.670;14.272;2024-01-16T06:59:36;-6.70;61.30
38333;DHT22;25748;46.670;14.272;2024-01-16T07:02:02;-6.70;61.50
38333;DHT22;25748;46.670;14.272;2024-01-16T07:04:28;-6.70;61.60
38333;DHT22;25748;46.670;14.272;2024-01-16T07:06:54;-6.70;61.40
38333;DHT22;25748;46.670;14.272;2024-01-16T07:09:20;-6.70;61.50
38333;DHT22;25748;46.670;14.272;2024-01-16T07:11:47;-6.70;61.60
38333;DHT22;25748;46.670;14.272;2024-01-16T07:14:12;-6.70;61.60
38333;DHT22;25748;46.670;14.272;2024-01-16T07:16:38;-6.60;61.90
38333;DHT22;25748;46.670;14.272;2024-01-16T07:19:04;-6.60;62.30
38333;DHT22;25748;46.670;14.272;2024-01-16T07:21:29;-6.50;62.50
38333;DHT22;25748;46.670;14.272;2024-01-16T07:23:55;-6.50;62.70
38333;DHT22;25748;46.670;14.272;2024-01-16T07:26:22;-6.40;63.10
38333;DHT22;25748;46.670;14.272;2024-01-16T07:28:48;-6.30;63.40
38333;DHT22;25748;46.670;14.272;2024-01-16T07:31:14;-6.20;63.80
38333;DHT22;25748;46.670;14.272;2024-01-16T07:33:43;-6.10;64.10
38333;DHT22;25748;46.670;14.272;2024-01-16T07:36:09;-6.00;64.40
38333;DHT22;25748;46.670;14.272;2024-01-16T07:38:35;-5.90;64.70
38333;DHT22;25748;46.670;14.272;2024-01-16T07:41:04;-5.80;64.90
38333;DHT22;25748;46.670;14.272;2024-01-16T07:43:30;-5.70;65.10
38333;DHT22;25748;46.670;14.272;2024-01-16T07:45:56;-5.60;65.30
38333;DHT22;25748;46.670;14.272;2024-01-16T07:48:22;-5.50;65.40
38333;DHT22;25748;46.670;14.272;2024-01-16T07:50:50;-5.50;65.50
38333;DHT22;25748;46.670;14.272;2024-01-16T07:53:16;-5.40;65.60
38333;DHT22;25748;46.670;14.272;2024-01-16T07:55:42;-5.30;65.90
38333;DHT22;25748;46.670;14.272;2024-01-16T07:58:10;-5.20;66.10
38333;DHT22;25748;46.670;14.272;2024-01-16T08:00:36;-5.10;66.20
38333;DHT22;25748;46.670;14.272;2024-01-16T08:03:02;-5.10;66.20
38333;DHT22;25748;46.670;14.272;2024-01-16T08:05:28;-5.00;66.30
38333;DHT22;25748;46.670;14.272;2024-01-16T08:07:56;-4.90;66.50
38333;DHT22;25748;46.670;14.272;2024-01-16T08:10:22;-4.80;66.60
38333;DHT22;25748;46.670;14.272;2024-01-16T08:12:47;-4.70;66.80
38333;DHT22;25748;46.670;14.272;2024-01-16T08:15:13;-4.70;66.90
38333;DHT22;25748;46.670;14.272;2024-01-16T08:17:39;-4.60;67.10
38333;DHT22;25748;46.670;14.272;2024-01-16T08:20:05;-4.40;67.50
38333;DHT22;25748;46.670;14.272;2024-01-16T08:22:31;-4.30;67.90
38333;DHT22;25748;46.670;14.272;2024-01-16T08:24:57;-4.20;68.30
38333;DHT22;25748;46.670;14.272;2024-01-16T08:27:22;-4.00;68.60
38333;DHT22;25748;46.670;14.272;2024-01-16T08:29:48;-3.90;68.80
38333;DHT22;25748;46.670;14.272;2024-01-16T08:32:16;-3.80;69.20
38333;DHT22;25748;46.670;14.272;2024-01-16T08:34:42;-3.60;69.50
38333;DHT22;25748;46.670;14.272;2024-01-16T08:37:08;-3.50;69.60
38333;DHT22;25748;46.670;14.272;2024-01-16T08:39:34;-3.40;69.80
38333;DHT22;25748;46.670;14.272;2024-01-16T08:42:00;-3.30;70.00
38333;DHT22;25748;46.670;14.272;2024-01-16T08:44:28;-3.20;70.10
38333;DHT22;25748;46.670;14.272;2024-01-16T08:46:53;-3.10;70.10
38333;DHT22;25748;46.670;14.272;2024-01-16T08:49:19;-3.00;70.20
38333;DHT22;25748;46.670;14.272;2024-01-16T08:51:44;-2.90;70.30
38333;DHT22;25748;46.670;14.272;2024-01-16T08:54:10;-2.80;70.20
38333;DHT22;25748;46.670;14.272;2024-01-16T08:56:36;-2.80;70.20
38333;DHT22;25748;46.670;14.272;2024-01-16T08:59:02;-2.60;70.40
38333;DHT22;25748;46.670;14.272;2024-01-16T09:01:27;-2.60;70.40
38333;DHT22;25748;46.670;14.272;2024-01-16T09:03:53;-2.50;70.40
38333;DHT22;25748;46.670;14.272;2024-01-16T09:06:19;-2.40;70.40
38333;DHT22;25748;46.670;14.272;2024-01-16T09:08:44;-2.40;70.60
38333;DHT22;25748;46.670;14.272;2024-01-16T09:11:10;-2.30;70.50
38333;DHT22;25748;46.670;14.272;2024-01-16T09:13:37;-2.30;70.50
38333;DHT22;25748;46.670;14.272;2024-01-16T09:16:03;-2.20;70.40
38333;DHT22;25748;46.670;14.272;2024-01-16T09:18:29;-2.20;70.10
38333;DHT22;25748;46.670;14.272;2024-01-16T09:20:55;-2.20;69.80
38333;DHT22;25748;46.670;14.272;2024-01-16T09:23:21;-2.10;70.00
38333;DHT22;25748;46.670;14.272;2024-01-16T09:25:46;-2.10;69.70
38333;DHT22;25748;46.670;14.272;2024-01-16T09:28:12;-2.10;69.50
38333;DHT22;25748;46.670;14.272;2024-01-16T09:30:38;-2.10;69.80
38333;DHT22;25748;46.670;14.272;2024-01-16T09:33:03;-1.90;70.50
38333;DHT22;25748;46.670;14.272;2024-01-16T09:35:32;-1.80;70.60
38333;DHT22;25748;46.670;14.272;2024-01-16T09:37:58;-1.70;70.80
38333;DHT22;25748;46.670;14.272;2024-01-16T09:40:25;-1.50;71.00
38333;DHT22;25748;46.670;14.272;2024-01-16T09:42:51;-1.40;71.10
38333;DHT22;25748;46.670;14.272;2024-01-16T09:45:20;-1.30;71.30
38333;DHT22;25748;46.670;14.272;2024-01-16T09:47:48;-1.10;71.60
38333;DHT22;25748;46.670;14.272;2024-01-16T09:50:15;-1.00;71.60
38333;DHT22;25748;46.670;14.272;2024-01-16T09:52:44;-0.80;72.00
38333;DHT22;25748;46.670;14.272;2024-01-16T09:55:10;-0.60;72.20
38333;DHT22;25748;46.670;14.272;2024-01-16T09:57:41;-0.40;72.30
38333;DHT22;25748;46.670;14.272;2024-01-16T10:00:10;-0.30;72.10
38333;DHT22;25748;46.670;14.272;2024-01-16T10:02:39;-0.20;71.30
38333;DHT22;25748;46.670;14.272;2024-01-16T10:05:10;-0.10;70.60
38333;DHT22;25748;46.670;14.272;2024-01-16T10:07:37;0.00;69.10
38333;DHT22;25748;46.670;14.272;2024-01-16T10:10:03;0.10;69.30
38333;DHT22;25748;46.670;14.272;2024-01-16T10:12:30;0.30;69.30
38333;DHT22;25748;46.670;14.272;2024-01-16T10:14:56;0.50;68.50
38333;DHT22;25748;46.670;14.272;2024-01-16T10:17:22;0.60;67.30
38333;DHT22;25748;46.670;14.272;2024-01-16T10:20:00;0.70;66.80
38333;DHT22;25748;46.670;14.272;2024-01-16T10:22:30;0.90;65.50
38333;DHT22;25748;46.670;14.272;2024-01-16T10:25:12;1.00;64.10
38333;DHT22;25748;46.670;14.272;2024-01-16T10:27:42;1.10;63.50
38333;DHT22;25748;46.670;14.272;2024-01-16T10:30:08;1.20;62.00
38333;DHT22;25748;46.670;14.272;2024-01-16T10:32:35;1.40;61.30
38333;DHT22;25748;46.670;14.272;2024-01-16T10:35:12;1.50;60.20
38333;DHT22;25748;46.670;14.272;2024-01-16T10:37:42;1.70;59.70
38333;DHT22;25748;46.670;14.272;2024-01-16T10:40:09;1.80;59.60
38333;DHT22;25748;46.670;14.272;2024-01-16T10:42:34;2.00;59.00
38333;DHT22;25748;46.670;14.272;2024-01-16T10:45:00;2.10;58.90
38333;DHT22;25748;46.670;14.272;2024-01-16T10:47:25;2.30;57.60
38333;DHT22;25748;46.670;14.272;2024-01-16T10:49:51;2.40;57.70
38333;DHT22;25748;46.670;14.272;2024-01-16T10:52:18;2.50;57.40
38333;DHT22;25748;46.670;14.272;2024-01-16T10:54:46;2.60;56.50
38333;DHT22;25748;46.670;14.272;2024-01-16T10:57:15;2.70;56.70
38333;DHT22;25748;46.670;14.272;2024-01-16T11:02:23;3.00;56.40
38333;DHT22;25748;46.670;14.272;2024-01-16T11:04:51;3.10;55.70
38333;DHT22;25748;46.670;14.272;2024-01-16T11:07:18;3.20;54.70
38333;DHT22;25748;46.670;14.272;2024-01-16T11:09:45;3.30;54.60
38333;DHT22;25748;46.670;14.272;2024-01-16T11:12:11;3.40;54.50
38333;DHT22;25748;46.670;14.272;2024-01-16T11:14:42;3.50;54.20
38333;DHT22;25748;46.670;14.272;2024-01-16T11:17:09;3.60;53.50
38333;DHT22;25748;46.670;14.272;2024-01-16T11:19:43;3.70;53.60
38333;DHT22;25748;46.670;14.272;2024-01-16T11:22:09;3.90;54.00
38333;DHT22;25748;46.670;14.272;2024-01-16T11:24:35;4.00;53.60
38333;DHT22;25748;46.670;14.272;2024-01-16T11:27:01;4.10;53.40
38333;DHT22;25748;46.670;14.272;2024-01-16T11:31:52;4.40;53.00
38333;DHT22;25748;46.670;14.272;2024-01-16T11:37:07;4.60;51.80
38333;DHT22;25748;46.670;14.272;2024-01-16T11:39:34;4.80;51.80
38333;DHT22;25748;46.670;14.272;2024-01-16T11:42:00;4.80;50.70
38333;DHT22;25748;46.670;14.272;2024-01-16T11:44:46;4.80;50.20
38333;DHT22;25748;46.670;14.272;2024-01-16T11:47:23;5.00;50.20
38333;DHT22;25748;46.670;14.272;2024-01-16T11:49:52;5.10;49.50
38333;DHT22;25748;46.670;14.272;2024-01-16T11:55:29;5.20;48.70
38333;DHT22;25748;46.670;14.272;2024-01-16T12:00:49;5.40;47.70
38333;DHT22;25748;46.670;14.272;2024-01-16T12:03:22;5.40;47.00
38333;DHT22;25748;46.670;14.272;2024-01-16T12:05:55;5.50;47.40
38333;DHT22;25748;46.670;14.272;2024-01-16T12:08:21;5.60;47.90
38333;DHT22;25748;46.670;14.272;2024-01-16T12:10:47;5.60;47.00
38333;DHT22;25748;46.670;14.272;2024-01-16T12:13:14;5.60;47.20
38333;DHT22;25748;46.670;14.272;2024-01-16T12:15:39;5.50;46.50
38333;DHT22;25748;46.670;14.272;2024-01-16T12:18:05;5.60;46.50
38333;DHT22;25748;46.670;14.272;2024-01-16T12:20:32;5.60;46.80
38333;DHT22;25748;46.670;14.272;2024-01-16T12:23:02;5.60;46.90
38333;DHT22;25748;46.670;14.272;2024-01-16T12:25:32;5.70;47.30
38333;DHT22;25748;46.670;14.272;2024-01-16T12:27:59;5.70;47.00
38333;DHT22;25748;46.670;14.272;2024-01-16T12:30:34;5.70;47.00
38333;DHT22;25748;46.670;14.272;2024-01-16T12:33:08;5.70;46.90
38333;DHT22;25748;46.670;14.272;2024-01-16T12:35:38;5.70;47.20
38333;DHT22;25748;46.670;14.272;2024-01-16T12:38:05;5.80;47.00
38333;DHT22;25748;46.670;14.272;2024-01-16T12:40:32;5.90;47.00
38333;DHT22;25748;46.670;14.272;2024-01-16T12:42:59;6.00;46.80
38333;DHT22;25748;46.670;14.272;2024-01-16T12:45:24;6.00;46.80
38333;DHT22;25748;46.670;14.272;2024-01-16T12:47:54;6.10;46.20
38333;DHT22;25748;46.670;14.272;2024-01-16T12:50:27;6.10;46.40
38333;DHT22;25748;46.670;14.272;2024-01-16T12:55:29;6.20;46.20
38333;DHT22;25748;46.670;14.272;2024-01-16T12:58:20;6.20;46.40
38333;DHT22;25748;46.670;14.272;2024-01-16T13:00:47;6.20;46.00
38333;DHT22;25748;46.670;14.272;2024-01-16T13:03:26;6.20;46.00
38333;DHT22;25748;46.670;14.272;2024-01-16T13:05:56;6.30;46.40
38333;DHT22;25748;46.670;14.272;2024-01-16T13:08:22;6.30;46.10
38333;DHT22;25748;46.670;14.272;2024-01-16T13:11:07;6.40;46.00
38333;DHT22;25748;46.670;14.272;2024-01-16T13:13:34;6.50;45.50
38333;DHT22;25748;46.670;14.272;2024-01-16T13:16:01;6.50;45.10
38333;DHT22;25748;46.670;14.272;2024-01-16T13:18:28;6.50;45.10
38333;DHT22;25748;46.670;14.272;2024-01-16T13:20:56;6.50;45.10
38333;DHT22;25748;46.670;14.272;2024-01-16T13:23:23;6.50;45.10
38333;DHT22;25748;46.670;14.272;2024-01-16T13:25:50;6.50;44.90
38333;DHT22;25748;46.670;14.272;2024-01-16T13:28:17;6.40;45.00
38333;DHT22;25748;46.670;14.272;2024-01-16T13:30:44;6.40;44.60
38333;DHT22;25748;46.670;14.272;2024-01-16T13:33:10;6.40;44.50
38333;DHT22;25748;46.670;14.272;2024-01-16T13:35:39;6.40;43.90
38333;DHT22;25748;46.670;14.272;2024-01-16T13:38:07;6.40;43.60
38333;DHT22;25748;46.670;14.272;2024-01-16T13:40:36;6.40;43.20
38333;DHT22;25748;46.670;14.272;2024-01-16T13:43:06;6.30;42.70
38333;DHT22;25748;46.670;14.272;2024-01-16T13:45:34;6.30;42.50
38333;DHT22;25748;46.670;14.272;2024-01-16T13:48:01;6.30;42.80
38333;DHT22;25748;46.670;14.272;2024-01-16T13:50:28;6.20;42.50
38333;DHT22;25748;46.670;14.272;2024-01-16T13:52:53;6.20;42.60
38333;DHT22;25748;46.670;14.272;2024-01-16T13:55:20;6.10;42.50
38333;DHT22;25748;46.670;14.272;2024-01-16T13:57:46;6.10;42.80
38333;DHT22;25748;46.670;14.272;2024-01-16T14:00:13;6.10;42.80
38333;DHT22;25748;46.670;14.272;2024-01-16T14:02:44;6.10;42.80
38333;DHT22;25748;46.670;14.272;2024-01-16T14:05:15;6.10;41.80
38333;DHT22;25748;46.670;14.272;2024-01-16T14:07:51;6.10;42.40
38333;DHT22;25748;46.670;14.272;2024-01-16T14:10:19;6.10;42.30
38333;DHT22;25748;46.670;14.272;2024-01-16T14:12:47;6.10;42.30
38333;DHT22;25748;46.670;14.272;2024-01-16T14:15:14;6.10;42.60
38333;DHT22;25748;46.670;14.272;2024-01-16T14:17:54;6.10;42.80
38333;DHT22;25748;46.670;14.272;2024-01-16T14:20:21;6.10;42.80
38333;DHT22;25748;46.670;14.272;2024-01-16T14:22:55;6.10;43.00
38333;DHT22;25748;46.670;14.272;2024-01-16T14:25:21;6.10;43.00
38333;DHT22;25748;46.670;14.272;2024-01-16T14:28:03;6.10;42.60
38333;DHT22;25748;46.670;14.272;2024-01-16T14:30:30;6.10;42.20
38333;DHT22;25748;46.670;14.272;2024-01-16T14:32:56;6.20;42.00
38333;DHT22;25748;46.670;14.272;2024-01-16T14:35:22;6.20;42.30
38333;DHT22;25748;46.670;14.272;2024-01-16T14:37:50;6.20;42.20
38333;DHT22;25748;46.670;14.272;2024-01-16T14:40:15;6.20;41.90
38333;DHT22;25748;46.670;14.272;2024-01-16T14:42:49;6.20;41.70
38333;DHT22;25748;46.670;14.272;2024-01-16T14:45:21;6.10;41.80
38333;DHT22;25748;46.670;14.272;2024-01-16T14:47:47;6.10;41.60
38333;DHT22;25748;46.670;14.272;2024-01-16T14:50:14;6.10;40.40
38333;DHT22;25748;46.670;14.272;2024-01-16T14:52:43;6.00;40.60
38333;DHT22;25748;46.670;14.272;2024-01-16T14:55:09;5.90;40.70
38333;DHT22;25748;46.670;14.272;2024-01-16T14:57:35;5.90;40.70
38333;DHT22;25748;46.670;14.272;2024-01-16T15:00:11;5.90;40.60
38333;DHT22;25748;46.670;14.272;2024-01-16T15:02:43;5.90;40.70
38333;DHT22;25748;46.670;14.272;2024-01-16T15:05:09;5.80;40.90
38333;DHT22;25748;46.670;14.272;2024-01-16T15:07:35;5.70;41.20
38333;DHT22;25748;46.670;14.272;2024-01-16T15:10:04;5.70;40.80
38333;DHT22;25748;46.670;14.272;2024-01-16T15:12:31;5.60;40.70
38333;DHT22;25748;46.670;14.272;2024-01-16T15:14:57;5.50;41.10
38333;DHT22;25748;46.670;14.272;2024-01-16T15:17:23;5.30;41.50
38333;DHT22;25748;46.670;14.272;2024-01-16T15:19:49;5.10;43.00
38333;DHT22;25748;46.670;14.272;2024-01-16T15:22:17;4.70;43.90
38333;DHT22;25748;46.670;14.272;2024-01-16T15:24:44;4.40;44.20
38333;DHT22;25748;46.670;14.272;2024-01-16T15:27:11;4.10;44.30
38333;DHT22;25748;46.670;14.272;2024-01-16T15:29:37;3.90;44.60
38333;DHT22;25748;46.670;14.272;2024-01-16T15:32:03;3.70;44.90
38333;DHT22;25748;46.670;14.272;2024-01-16T15:34:28;3.50;45.10